Time;durP1;ratioP1;P1;durP2;ratioP2;P2;SDS_P1;SDS_P2;PMS_P1;PMS_P2;Temp;Humidity;BMP_temperature;BMP_pressure;BME280_temperature;BME280_humidity;BME280_pressure;Samples;Min_cycle;Max_cycle;Signal;HPM_P1;HPM_P2
2022/09/26 00:01:15;;;;;;;;;;;;;;;11.83;66.92;100794.14;1672729;85;25773;-59
2022/09/26 00:03:44;;;;;;;;;;;;;;;11.81;67.35;100794.77;1672409;84;27481;-60
2022/09/26 00:06:11;;;;;;;;;;;;;;;11.80;67.57;100797.11;1672786;85;26416;-59
2022/09/26 00:08:38;;;;;;;;;;;;;;;11.80;67.66;100790.38;1672479;85;25799;-60
2022/09/26 00:11:07;;;;;;;;;;;;;;;11.81;67.71;100786.69;1672424;85;25824;-60
2022/09/26 00:13:36;;;;;;;;;;;;;;;11.83;67.81;100793.30;1672536;85;25785;-60
2022/09/26 00:16:03;;;;;;;;;;;;;;;11.86;68.00;100785.77;1672654;85;28284;-60
2022/09/26 00:18:30;;;;;;;;;;;;;;;11.88;68.35;100789.16;1668042;84;26441;-61
2022/09/26 00:21:09;;;;;;;;;;;;;;;11.92;68.30;100784.35;1672310;85;25714;-60
2022/09/26 00:23:36;;;;;;;;;;;;;;;11.95;68.36;100784.04;1672538;84;25842;-59
2022/09/26 00:26:03;;;;;;;;;;;;;;;11.98;68.61;100778.41;1668041;84;25726;-60
2022/09/26 00:28:29;;;;;;;;;;;;;;;12.01;68.62;100770.00;1672886;85;28140;-60
2022/09/26 00:30:56;;;;;;;;;;;;;;;12.02;68.13;100766.83;1651180;84;25752;-60
2022/09/26 00:33:23;;;;;;;;;;;;;;;12.00;68.10;100772.37;1645637;87;25820;-60
2022/09/26 00:35:52;;;;;;;;;;;;;;;11.98;67.86;100773.02;1645768;87;25806;-60
2022/09/26 00:38:19;;;;;;;;;;;;;;;11.95;67.79;100764.33;1645657;86;26132;-59
2022/09/26 00:40:47;;;;;;;;;;;;;;;11.92;67.83;100764.61;1647033;85;27474;-60
2022/09/26 00:43:37;;;;;;;;;;;;;;;11.91;67.94;100761.08;1646250;87;25766;-59
2022/09/26 00:46:18;;;;;;;;;;;;;;;11.89;67.79;100753.12;1645677;87;25631;-59
2022/09/26 00:48:48;;;;;;;;;;;;;;;11.89;67.88;100756.33;1642696;86;26704;-60
2022/09/26 00:51:15;;;;;;;;;;;;;;;11.86;67.76;100753.43;1651909;85;25712;-60
2022/09/26 00:53:44;;;;;;;;;;;;;;;11.83;67.61;100746.97;1639641;86;27492;-60
2022/09/26 00:56:15;;;;;;;;;;;;;;;11.74;67.53;100741.94;1636011;85;25747;-59
2022/09/26 00:58:45;;;;;;;;;;;;;;;11.66;67.51;100744.50;1675261;85;25776;-59
2022/09/26 01:01:13;;;;;;;;;;;;;;;11.64;67.84;100742.95;1660280;85;26402;-61
2022/09/26 01:03:42;;;;;;;;;;;;;;;11.65;68.17;100746.01;1673147;85;25841;-61
2022/09/26 01:06:09;;;;;;;;;;;;;;;11.62;68.19;100738.20;1667989;85;27472;-60
2022/09/26 01:08:38;;;;;;;;;;;;;;;11.60;68.26;100747.78;1667749;86;26338;-60
2022/09/26 01:11:06;;;;;;;;;;;;;;;11.62;68.38;100746.28;1668146;84;25786;-60
2022/09/26 01:13:34;;;;;;;;;;;;;;;11.61;68.26;100739.22;1639743;86;25789;-61
2022/09/26 01:16:01;;;;;;;;;;;;;;;11.61;68.11;100740.57;1668260;84;25654;-60
2022/09/26 01:18:28;;;;;;;;;;;;;;;11.61;68.23;100736.02;1668076;85;28137;-61
2022/09/26 01:20:58;;;;;;;;;;;;;;;11.58;68.21;100730.42;1667758;86;25763;-60
2022/09/26 01:23:37;;;;;;;;;;;;;;;11.55;68.25;100733.39;1665465;86;25526;-59
2022/09/26 01:26:26;;;;;;;;;;;;;;;11.52;67.96;100732.33;1668254;83;26012;-60
2022/09/26 01:28:57;;;;;;;;;;;;;;;11.45;67.75;100729.86;1667709;85;26484;-60
2022/09/26 01:31:34;;;;;;;;;;;;;;;11.34;67.96;100730.03;1675669;83;27640;-59
2022/09/26 01:34:19;;;;;;;;;;;;;;;11.27;67.63;100735.95;1681660;85;25828;-59
2022/09/26 01:36:57;;;;;;;;;;;;;;;11.19;67.56;100726.39;1681927;85;25280;-60
2022/09/26 01:39:45;;;;;;;;;;;;;;;11.03;67.68;100719.38;1676926;83;25868;-61
2022/09/26 01:42:51;;;;;;;;;;;;;;;10.93;67.78;100712.14;1671280;85;25819;-61
2022/09/26 01:45:23;;;;;;;;;;;;;;;10.84;68.29;100722.91;1672112;85;27597;-61
2022/09/26 01:47:53;;;;;;;;;;;;;;;10.74;68.28;100713.45;1672052;85;25804;-61
2022/09/26 01:50:40;;;;;;;;;;;;;;;10.67;68.42;100706.42;1672146;85;25777;-60
2022/09/26 01:53:15;;;;;;;;;;;;;;;10.57;68.26;100702.89;1672577;85;26016;-60
2022/09/26 01:55:48;;;;;;;;;;;;;;;10.45;68.23;100703.47;1673289;84;25717;-60
2022/09/26 01:58:19;;;;;;;;;;;;;;;10.34;68.40;100698.55;1688660;85;27623;-60
2022/09/26 02:00:49;;;;;;;;;;;;;;;10.29;68.77;100703.97;1688972;85;26294;-60
2022/09/26 02:03:19;;;;;;;;;;;;;;;10.24;68.79;100704.86;1688986;85;25825;-59
2022/09/26 02:06:01;;;;;;;;;;;;;;;10.22;69.89;100697.45;1688887;85;27099;-61
2022/09/26 02:08:37;;;;;;;;;;;;;;;10.22;69.32;100701.48;1688953;85;25773;-59
2022/09/26 02:11:11;;;;;;;;;;;;;;;10.20;69.83;100696.21;1686781;84;27494;-60
2022/09/26 02:13:54;;;;;;;;;;;;;;;10.17;69.91;100689.78;1688758;85;25796;-60
2022/09/26 02:16:35;;;;;;;;;;;;;;;10.16;69.88;100682.70;1689109;85;25772;-60
2022/09/26 02:19:23;;;;;;;;;;;;;;;10.17;69.72;100682.55;1688891;85;25970;-59
2022/09/26 02:21:50;;;;;;;;;;;;;;;10.14;69.63;100690.87;1689022;85;25725;-60
2022/09/26 02:24:17;;;;;;;;;;;;;;;10.14;70.13;100694.08;1665021;85;27615;-60
2022/09/26 02:26:44;;;;;;;;;;;;;;;10.11;70.01;100691.17;1688871;85;25669;-60
2022/09/26 02:29:14;;;;;;;;;;;;;;;10.08;69.98;100691.94;1688490;84;25787;-59
2022/09/26 02:31:56;;;;;;;;;;;;;;;10.06;69.83;100688.02;1656776;85;25779;-60
2022/09/26 02:34:25;;;;;;;;;;;;;;;10.02;70.36;100683.92;1653232;86;25788;-60
2022/09/26 02:36:54;;;;;;;;;;;;;;;9.97;70.28;100687.01;1652038;86;27349;-59
2022/09/26 02:39:23;;;;;;;;;;;;;;;9.98;70.27;100682.00;1689596;83;25452;-60
2022/09/26 02:41:58;;;;;;;;;;;;;;;9.98;70.46;100679.30;1694859;83;25817;-61
2022/09/26 02:44:46;;;;;;;;;;;;;;;9.99;70.66;100684.17;1671959;84;26411;-60
2022/09/26 02:47:29;;;;;;;;;;;;;;;10.01;71.09;100685.73;1672804;84;25493;-60
2022/09/26 02:50:02;;;;;;;;;;;;;;;10.05;71.22;100680.94;1672432;84;27554;-60
2022/09/26 02:52:50;;;;;;;;;;;;;;;10.12;71.41;100678.09;1671633;84;25757;-60
2022/09/26 02:55:31;;;;;;;;;;;;;;;10.18;71.31;100684.73;1671917;85;25753;-61
2022/09/26 02:58:17;;;;;;;;;;;;;;;10.23;71.29;100687.89;1682785;84;25815;-60
2022/09/26 03:00:53;;;;;;;;;;;;;;;10.28;71.33;100692.34;1677286;85;25819;-59
2022/09/26 03:03:33;;;;;;;;;;;;;;;10.31;71.13;100694.77;1677213;85;27532;-60
2022/09/26 03:06:01;;;;;;;;;;;;;;;10.36;71.16;100689.47;1677138;85;26179;-61
2022/09/26 03:08:30;;;;;;;;;;;;;;;10.40;71.23;100689.09;1677536;85;25916;-60
2022/09/26 03:11:00;;;;;;;;;;;;;;;10.45;71.10;100694.05;1682558;85;26784;-59
2022/09/26 03:13:27;;;;;;;;;;;;;;;10.47;71.09;100689.39;1677693;85;25765;-59
2022/09/26 03:15:55;;;;;;;;;;;;;;;10.46;70.98;100681.83;1677468;85;28164;-60
2022/09/26 03:18:27;;;;;;;;;;;;;;;10.48;71.01;100689.75;1655464;85;25850;-60
2022/09/26 03:20:54;;;;;;;;;;;;;;;10.53;71.41;100690.69;1677321;84;25973;-60
2022/09/26 03:23:25;;;;;;;;;;;;;;;10.58;71.28;100677.19;1677397;85;25767;-60
2022/09/26 03:26:02;;;;;;;;;;;;;;;10.59;71.07;100672.64;1657650;85;25936;-61
2022/09/26 03:28:29;;;;;;;;;;;;;;;10.61;71.13;100674.23;1677479;85;27346;-60
2022/09/26 03:30:56;;;;;;;;;;;;;;;10.63;71.20;100677.61;1696297;83;25772;-61
2022/09/26 03:33:27;;;;;;;;;;;;;;;10.66;71.12;100671.13;1695183;84;25711;-61
2022/09/26 03:35:54;;;;;;;;;;;;;;;10.67;70.84;100678.68;1695418;84;25676;-60
2022/09/26 03:38:21;;;;;;;;;;;;;;;10.68;70.84;100684.42;1699116;83;25747;-61
2022/09/26 03:40:50;;;;;;;;;;;;;;;10.67;70.77;100677.34;1712710;83;27528;-60
2022/09/26 03:43:35;;;;;;;;;;;;;;;10.71;70.71;100673.39;1697410;83;25660;-60
2022/09/26 03:46:04;;;;;;;;;;;;;;;10.71;70.66;100674.73;1712997;82;25867;-59
2022/09/26 03:48:32;;;;;;;;;;;;;;;10.65;70.35;100677.48;1713231;83;25743;-60
2022/09/26 03:51:07;;;;;;;;;;;;;;;10.57;70.23;100685.41;1713050;83;25733;-60
2022/09/26 03:53:37;;;;;;;;;;;;;;;10.54;70.33;100676.25;1713141;83;27659;-60
2022/09/26 03:56:11;;;;;;;;;;;;;;;10.51;70.94;100677.86;1694381;83;25806;-60
2022/09/26 03:58:38;;;;;;;;;;;;;;;10.52;71.19;100679.56;1692477;83;25791;-60
2022/09/26 04:01:11;;;;;;;;;;;;;;;10.52;71.13;100677.75;1684583;84;25854;-60
2022/09/26 04:03:40;;;;;;;;;;;;;;;10.55;71.15;100677.96;1686293;85;25769;-60
2022/09/26 04:06:09;;;;;;;;;;;;;;;10.54;71.04;100679.78;1688104;85;27531;-60
2022/09/26 04:08:39;;;;;;;;;;;;;;;10.55;70.97;100681.99;1674556;84;25732;-60
2022/09/26 04:11:09;;;;;;;;;;;;;;;10.52;70.67;100687.64;1652948;85;25831;-60
2022/09/26 04:13:35;;;;;;;;;;;;;;;10.47;70.65;100680.85;1674599;85;26778;-60
2022/09/26 04:16:04;;;;;;;;;;;;;;;10.44;70.65;100693.22;1674609;85;25841;-60
2022/09/26 04:18:32;;;;;;;;;;;;;;;10.41;70.96;100692.13;1674483;85;27489;-60
2022/09/26 04:21:05;;;;;;;;;;;;;;;10.41;70.96;100696.68;1674370;85;25879;-60
2022/09/26 04:23:33;;;;;;;;;;;;;;;10.38;71.07;100688.40;1674504;85;25776;-59
2022/09/26 04:26:12;;;;;;;;;;;;;;;10.34;70.66;100678.86;1674363;85;26112;-60
2022/09/26 04:28:40;;;;;;;;;;;;;;;10.29;70.36;100672.55;1674186;85;25617;-60
2022/09/26 04:31:09;;;;;;;;;;;;;;;10.26;70.64;100682.25;1676008;84;28216;-61
2022/09/26 04:33:39;;;;;;;;;;;;;;;10.22;70.87;100682.15;1672511;85;25736;-61
2022/09/26 04:36:12;;;;;;;;;;;;;;;10.20;70.80;100668.49;1671545;85;25749;-60
2022/09/26 04:38:39;;;;;;;;;;;;;;;10.15;71.09;100663.52;1687662;83;25957;-59
2022/09/26 04:41:14;;;;;;;;;;;;;;;10.11;71.06;100666.98;1716482;83;26137;-60
2022/09/26 04:43:41;;;;;;;;;;;;;;;10.07;71.06;100670.91;1716770;83;28706;-60
2022/09/26 04:46:15;;;;;;;;;;;;;;;10.04;71.27;100665.80;1716449;83;25739;-60
2022/09/26 04:48:43;;;;;;;;;;;;;;;10.02;71.41;100661.91;1710243;83;25803;-60
2022/09/26 04:51:12;;;;;;;;;;;;;;;10.02;71.48;100663.25;1705749;84;25817;-59
2022/09/26 04:53:40;;;;;;;;;;;;;;;10.02;71.61;100664.59;1690844;84;25921;-60
2022/09/26 04:56:11;;;;;;;;;;;;;;;10.05;71.29;100674.22;1675857;85;27881;-60
2022/09/26 04:58:40;;;;;;;;;;;;;;;10.05;71.10;100676.07;1689220;84;26526;-60
2022/09/26 05:01:09;;;;;;;;;;;;;;;10.02;71.18;100665.94;1670231;84;25766;-60
2022/09/26 05:03:37;;;;;;;;;;;;;;;10.01;71.30;100662.05;1694780;84;26693;-60
2022/09/26 05:06:07;;;;;;;;;;;;;;;10.00;71.56;100659.84;1694580;84;25753;-61
2022/09/26 05:08:36;;;;;;;;;;;;;;;10.00;71.82;100647.75;1694113;84;27652;-60
2022/09/26 05:11:05;;;;;;;;;;;;;;;10.05;72.26;100658.60;1694191;84;25745;-60
2022/09/26 05:13:32;;;;;;;;;;;;;;;10.07;72.35;100659.32;1694285;84;25841;-60
2022/09/26 05:16:00;;;;;;;;;;;;;;;10.10;72.53;100668.44;1694228;84;26615;-61
2022/09/26 05:18:27;;;;;;;;;;;;;;;10.14;72.75;100667.20;1694404;84;25741;-61
2022/09/26 05:20:56;;;;;;;;;;;;;;;10.18;72.80;100657.86;1693495;84;28473;-61
2022/09/26 05:26:19;;;;;;;;;;;;;;;10.25;73.01;100649.63;1694141;84;25757;-59
2022/09/26 05:28:55;;;;;;;;;;;;;;;10.31;72.86;100654.45;1694041;84;26319;-61
2022/09/26 05:31:27;;;;;;;;;;;;;;;10.37;73.39;100646.36;1699562;83;27588;-60
2022/09/26 05:33:52;;;;;;;;;;;;;;;10.41;73.36;100637.01;1694564;84;27602;-60
2022/09/26 05:36:19;;;;;;;;;;;;;;;10.46;73.26;100639.28;1694632;84;25811;-60
2022/09/26 05:38:45;;;;;;;;;;;;;;;10.53;73.38;100643.62;1701642;83;25728;-60
2022/09/26 05:41:13;;;;;;;;;;;;;;;10.58;73.54;100648.10;1711955;83;25804;-60
2022/09/26 05:43:41;;;;;;;;;;;;;;;10.64;73.69;100648.38;1696880;83;25751;-61
2022/09/26 05:46:10;;;;;;;;;;;;;;;10.73;73.58;100645.83;1677365;84;27676;-60
2022/09/26 05:48:40;;;;;;;;;;;;;;;10.82;73.72;100637.42;1677193;84;25735;-60
2022/09/26 05:51:10;;;;;;;;;;;;;;;10.90;73.60;100626.80;1677076;85;25799;-60
2022/09/26 05:53:39;;;;;;;;;;;;;;;11.00;73.71;100620.92;1657484;85;26622;-61
2022/09/26 05:56:07;;;;;;;;;;;;;;;11.10;73.82;100614.17;1677269;85;25835;-61
2022/09/26 05:58:39;;;;;;;;;;;;;;;11.20;73.56;100613.66;1673331;84;28169;-60
2022/09/26 06:01:13;;;;;;;;;;;;;;;11.34;73.74;100603.45;1655064;85;26128;-60
2022/09/26 06:03:44;;;;;;;;;;;;;;;11.43;73.54;100601.20;1673906;84;25764;-60
2022/09/26 06:06:18;;;;;;;;;;;;;;;11.53;73.29;100605.23;1674215;85;25807;-60
2022/09/26 06:08:47;;;;;;;;;;;;;;;11.63;73.02;100603.84;1674435;85;25804;-60
2022/09/26 06:11:29;;;;;;;;;;;;;;;11.67;72.87;100604.74;1674892;85;27553;-60
2022/09/26 06:13:54;;;;;;;;;;;;;;;11.74;72.70;100597.76;1673845;85;25661;-60
2022/09/26 06:16:23;;;;;;;;;;;;;;;11.82;72.55;100597.54;1674110;85;26009;-61
2022/09/26 06:18:51;;;;;;;;;;;;;;;11.91;72.16;100592.61;1674152;85;25755;-61
2022/09/26 06:21:19;;;;;;;;;;;;;;;12.02;71.76;100595.11;1674075;85;25710;-61
2022/09/26 06:23:48;;;;;;;;;;;;;;;12.14;71.52;100598.48;1665440;85;27565;-61
2022/09/26 06:26:21;;;;;;;;;;;;;;;12.27;71.32;100599.95;1671922;85;25806;-61
2022/09/26 06:28:50;;;;;;;;;;;;;;;12.37;71.37;100608.31;1674634;85;25480;-61
2022/09/26 06:31:18;;;;;;;;;;;;;;;12.47;71.40;100615.02;1689956;83;25926;-60
2022/09/26 06:34:04;;;;;;;;;;;;;;;12.55;71.30;100630.42;1689826;84;25451;-61
2022/09/26 06:36:48;;;;;;;;;;;;;;;12.63;70.88;100631.88;1666480;84;27528;-62
2022/09/26 06:39:14;;;;;;;;;;;;;;;12.70;70.50;100633.44;1672483;84;25743;-60
2022/09/26 06:41:41;;;;;;;;;;;;;;;12.77;70.16;100639.95;1663463;85;25719;-60
2022/09/26 06:44:10;;;;;;;;;;;;;;;12.86;70.04;100644.07;1659519;85;25854;-60
2022/09/26 06:46:47;;;;;;;;;;;;;;;12.97;70.06;100636.58;1663155;85;25991;-61
2022/09/26 06:49:16;;;;;;;;;;;;;;;13.12;69.90;100634.66;1660691;85;27611;-60
2022/09/26 06:51:47;;;;;;;;;;;;;;;13.28;69.67;100634.78;1676230;85;25771;-60
2022/09/26 06:54:15;;;;;;;;;;;;;;;13.42;69.35;100630.70;1671493;85;25799;-61
2022/09/26 06:56:42;;;;;;;;;;;;;;;13.54;69.04;100623.69;1654033;85;25811;-60
2022/09/26 06:59:09;;;;;;;;;;;;;;;13.61;68.84;100625.60;1672777;84;25807;-61
2022/09/26 07:01:38;;;;;;;;;;;;;;;13.73;68.59;100618.06;1680157;84;27483;-60
2022/09/26 07:04:09;;;;;;;;;;;;;;;13.86;68.33;100619.45;1675124;85;25776;-60
2022/09/26 07:06:54;;;;;;;;;;;;;;;14.01;67.73;100622.41;1679646;85;25856;-60
2022/09/26 07:09:20;;;;;;;;;;;;;;;14.15;66.88;100619.59;1680106;84;25835;-60
2022/09/26 07:11:51;;;;;;;;;;;;;;;14.26;66.74;100617.94;1664165;85;25708;-61
2022/09/26 07:14:19;;;;;;;;;;;;;;;14.39;66.36;100610.70;1674979;85;27499;-61
2022/09/26 07:16:49;;;;;;;;;;;;;;;14.52;65.71;100614.28;1666025;84;25783;-60
2022/09/26 07:19:18;;;;;;;;;;;;;;;14.67;65.92;100608.59;1682743;84;25833;-60
2022/09/26 07:21:56;;;;;;;;;;;;;;;14.82;66.04;100606.06;1673903;85;26224;-61
2022/09/26 07:24:28;;;;;;;;;;;;;;;14.96;65.57;100604.55;1672402;85;25772;-60
2022/09/26 07:26:55;;;;;;;;;;;;;;;15.16;65.42;100610.98;1675357;84;29638;-61
2022/09/26 07:29:21;;;;;;;;;;;;;;;15.31;65.22;100603.84;1681109;83;25748;-61
2022/09/26 07:31:49;;;;;;;;;;;;;;;15.51;64.67;100595.34;1708202;83;25828;-60
2022/09/26 07:34:26;;;;;;;;;;;;;;;15.73;64.47;100592.92;1679744;84;25918;-60
2022/09/26 07:36:53;;;;;;;;;;;;;;;15.94;64.05;100589.66;1670845;83;25780;-60
2022/09/26 07:39:20;;;;;;;;;;;;;;;16.08;63.12;100594.33;1672140;85;27526;-60
2022/09/26 07:41:48;;;;;;;;;;;;;;;16.22;62.09;100589.19;1663753;85;25751;-61
2022/09/26 07:44:16;;;;;;;;;;;;;;;16.35;62.35;100586.72;1678933;84;25793;-60
2022/09/26 07:51:59;;;;;;;;;;;;;;;16.83;61.29;100568.06;1665769;85;27513;-60
2022/09/26 07:54:28;;;;;;;;;;;;;;;16.99;60.97;100568.45;1676322;85;26440;-60
2022/09/26 07:57:13;;;;;;;;;;;;;;;17.13;60.38;100574.45;1674689;85;25836;-60
2022/09/26 07:59:44;;;;;;;;;;;;;;;17.30;60.50;100569.68;1660503;85;26593;-60
2022/09/26 08:02:24;;;;;;;;;;;;;;;17.48;60.54;100569.34;1647191;87;25750;-60
2022/09/26 08:04:53;;;;;;;;;;;;;;;17.67;60.67;100567.92;1645519;86;28409;-60
2022/09/26 08:07:20;;;;;;;;;;;;;;;17.84;58.82;100568.58;1643678;87;25744;-59
2022/09/26 08:09:53;;;;;;;;;;;;;;;17.99;57.64;100576.77;1642904;87;25866;-60
2022/09/26 08:12:22;;;;;;;;;;;;;;;18.13;57.73;100566.88;1637049;87;25913;-60
2022/09/26 08:15:08;;;;;;;;;;;;;;;18.30;56.19;100564.75;1645163;85;25789;-61
2022/09/26 08:17:38;;;;;;;;;;;;;;;18.50;55.46;100556.49;1648195;87;27884;-60
2022/09/26 08:20:06;;;;;;;;;;;;;;;18.69;56.54;100560.44;1644664;86;25996;-60
2022/09/26 08:22:33;;;;;;;;;;;;;;;18.90;55.05;100555.48;1643953;87;25669;-61
2022/09/26 08:24:59;;;;;;;;;;;;;;;19.11;54.02;100568.27;1643674;87;26192;-60
2022/09/26 08:27:33;;;;;;;;;;;;;;;19.27;53.57;100573.95;1633342;86;25873;-60
2022/09/26 08:30:01;;;;;;;;;;;;;;;19.45;53.83;100561.20;1658889;85;27541;-60
2022/09/26 08:32:31;;;;;;;;;;;;;;;19.67;53.83;100556.49;1678669;85;26407;-60
2022/09/26 08:34:57;;;;;;;;;;;;;;;19.90;52.87;100544.44;1676245;85;25773;-60
2022/09/26 08:37:31;;;;;;;;;;;;;;;20.16;52.86;100536.02;1676500;85;25821;-61
2022/09/26 08:40:16;;;;;;;;;;;;;;;20.46;51.49;100537.05;1674823;84;26713;-61
2022/09/26 08:43:09;;;;;;;;;;;;;;;20.80;51.40;100540.69;1623879;85;27497;-61
2022/09/26 08:49:00;;;;;;;;;;;;;;;21.53;50.60;100526.59;1624821;87;25792;-61
2022/09/26 08:51:36;;;;;;;;;;;;;;;21.98;49.63;100528.03;1659806;85;25942;-60
2022/09/26 08:54:07;;;;;;;;;;;;;;;22.31;46.50;100518.81;1707689;82;25755;-60
2022/09/26 08:56:38;;;;;;;;;;;;;;;22.57;46.05;100506.02;1705190;84;27365;-60
2022/09/26 08:59:08;;;;;;;;;;;;;;;22.60;43.60;100504.72;1710472;82;25790;-61
2022/09/26 09:01:38;;;;;;;;;;;;;;;22.59;44.42;100505.78;1733478;81;25723;-61
2022/09/26 09:04:15;;;;;;;;;;;;;;;22.58;42.82;100499.48;1733414;81;25797;-61
2022/09/26 09:06:42;;;;;;;;;;;;;;;22.61;44.68;100499.55;1735425;81;25668;-62
2022/09/26 09:09:12;;;;;;;;;;;;;;;22.83;43.50;100494.52;1737612;81;27484;-60
2022/09/26 09:12:18;;;;;;;;;;;;;;;23.14;43.08;100489.98;1728840;81;25781;-60
2022/09/26 09:14:48;;;;;;;;;;;;;;;23.77;41.03;100482.55;1717880;82;25755;-61
2022/09/26 09:17:29;;;;;;;;;;;;;;;24.58;41.38;100477.28;1728359;81;25785;-61
2022/09/26 09:20:22;;;;;;;;;;;;;;;25.46;39.73;100469.19;1711261;83;25687;-61
2022/09/26 09:23:15;;;;;;;;;;;;;;;26.25;40.51;100469.92;1717879;82;27480;-61
2022/09/26 09:25:56;;;;;;;;;;;;;;;27.09;37.52;100485.90;1731374;82;25692;-62
2022/09/26 09:28:32;;;;;;;;;;;;;;;27.75;36.51;100479.06;1734028;81;25674;-61
2022/09/26 09:31:02;;;;;;;;;;;;;;;28.31;35.52;100480.78;1746970;81;25820;-60
2022/09/26 09:33:51;;;;;;;;;;;;;;;28.81;31.32;100472.38;1745339;81;26113;-62
2022/09/26 09:36:29;;;;;;;;;;;;;;;29.15;32.40;100468.70;1695734;81;28221;-62
2022/09/26 09:39:08;;;;;;;;;;;;;;;29.78;33.60;100486.48;1727749;82;25685;-61
2022/09/26 09:41:52;;;;;;;;;;;;;;;30.46;32.09;100489.68;1674662;82;25661;-61
2022/09/26 09:44:32;;;;;;;;;;;;;;;31.17;31.28;100489.95;1735677;82;26285;-61
2022/09/26 09:46:59;;;;;;;;;;;;;;;31.92;30.68;100486.32;1736269;81;25671;-61
2022/09/26 09:49:26;;;;;;;;;;;;;;;32.18;28.54;100483.95;1732747;81;28333;-62
2022/09/26 09:52:13;;;;;;;;;;;;;;;32.49;28.05;100487.94;1733085;81;25743;-61
2022/09/26 09:54:54;;;;;;;;;;;;;;;32.74;27.01;100504.42;1736702;82;25490;-61
2022/09/26 09:57:51;;;;;;;;;;;;;;;32.56;22.92;100487.03;1736173;82;25456;-61
2022/09/26 10:00:26;;;;;;;;;;;;;;;32.90;24.96;100480.62;1740569;82;27387;-61
2022/09/26 10:03:06;;;;;;;;;;;;;;;32.62;21.98;100477.50;1737088;81;28304;-60
2022/09/26 10:05:41;;;;;;;;;;;;;;;32.98;22.62;100456.88;1743462;82;25695;-60
2022/09/26 10:08:25;;;;;;;;;;;;;;;32.75;21.20;100456.50;1754538;80;25639;-61
2022/09/26 10:11:24;;;;;;;;;;;;;;;33.23;21.16;100461.30;1705439;84;25998;-61
2022/09/26 10:14:02;;;;;;;;;;;;;;;33.39;21.21;100452.23;1732549;82;27511;-61
2022/09/26 10:17:10;;;;;;;;;;;;;;;33.69;19.69;100445.41;1739468;82;27581;-60
2022/09/26 10:19:56;;;;;;;;;;;;;;;34.10;21.07;100442.61;1728498;81;25831;-61
2022/09/26 10:22:31;;;;;;;;;;;;;;;34.84;20.47;100444.45;1736309;82;25691;-61
2022/09/26 10:25:10;;;;;;;;;;;;;;;35.15;19.43;100437.73;1731699;82;25965;-60
2022/09/26 10:27:50;;;;;;;;;;;;;;;35.06;18.27;100434.81;1731199;82;26329;-61
2022/09/26 10:30:20;;;;;;;;;;;;;;;35.07;19.68;100428.09;1747571;81;27550;-61
2022/09/26 10:32:55;;;;;;;;;;;;;;;35.56;20.09;100434.66;1739313;81;25769;-61
2022/09/26 10:35:42;;;;;;;;;;;;;;;35.90;20.27;100435.31;1731842;82;25728;-61
2022/09/26 10:38:26;;;;;;;;;;;;;;;36.06;18.41;100429.63;1714788;81;26987;-61
2022/09/26 10:40:58;;;;;;;;;;;;;;;36.16;17.75;100413.98;1758422;81;26671;-61
2022/09/26 10:43:32;;;;;;;;;;;;;;;36.64;18.88;100407.44;1737853;81;27514;-61
2022/09/26 10:46:04;;;;;;;;;;;;;;;37.04;16.77;100385.05;1731683;82;25858;-61
2022/09/26 10:48:57;;;;;;;;;;;;;;;37.27;17.64;100387.73;1732265;82;25771;-61
2022/09/26 10:51:44;;;;;;;;;;;;;;;36.85;16.70;100389.48;1734798;82;25822;-60
2022/09/26 10:54:15;;;;;;;;;;;;;;;36.59;16.14;100388.79;1737674;82;25767;-61
2022/09/26 10:56:46;;;;;;;;;;;;;;;36.83;18.34;100379.75;1732200;81;28266;-61
2022/09/26 10:59:15;;;;;;;;;;;;;;;36.67;16.07;100388.59;1715421;82;25922;-61
2022/09/26 11:01:45;;;;;;;;;;;;;;;36.56;17.92;100381.05;1741381;82;25770;-62
2022/09/26 11:05:55;;;;;;;;;;;;;;;36.87;18.27;100368.16;1741430;82;25857;-61
2022/09/26 11:06:55;;;;;;;;;;;;;;;36.69;17.18;100356.88;1738035;82;25495;-61
2022/09/26 11:09:25;;;;;;;;;;;;;;;36.82;18.11;100356.52;1741381;82;27531;-61
2022/09/26 11:12:25;;;;;;;;;;;;;;;37.03;17.96;100353.97;1746245;81;25790;-61
2022/09/26 11:14:58;;;;;;;;;;;;;;;37.10;18.63;100351.50;1718123;82;25795;-62
2022/09/26 11:17:42;;;;;;;;;;;;;;;36.96;18.29;100349.42;1734722;81;26768;-60
2022/09/26 11:20:11;;;;;;;;;;;;;;;36.81;16.83;100345.05;1727063;82;25688;-61
2022/09/26 11:22:41;;;;;;;;;;;;;;;36.53;18.78;100347.26;1731058;80;27596;-61
2022/09/26 11:25:14;;;;;;;;;;;;;;;36.31;18.94;100352.53;1740076;81;25772;-61
2022/09/26 11:27:48;;;;;;;;;;;;;;;36.16;18.66;100350.14;1730720;83;25452;-61
2022/09/26 11:30:21;;;;;;;;;;;;;;;35.77;17.74;100352.48;1741105;81;25771;-61
2022/09/26 11:32:52;;;;;;;;;;;;;;;35.34;18.22;100348.71;1765678;81;25706;-61
2022/09/26 11:35:33;;;;;;;;;;;;;;;35.26;18.58;100346.92;1727648;81;27452;-61
2022/09/26 11:38:13;;;;;;;;;;;;;;;35.14;18.27;100336.84;1718352;81;25846;-63
2022/09/26 11:41:08;;;;;;;;;;;;;;;35.03;18.60;100332.05;1766367;81;25759;-60
2022/09/26 11:43:45;;;;;;;;;;;;;;;34.95;18.63;100329.41;1765294;80;25874;-62
2022/09/26 11:46:34;;;;;;;;;;;;;;;34.82;18.79;100330.23;1719267;81;25799;-60
2022/09/26 11:49:24;;;;;;;;;;;;;;;34.73;17.45;100337.67;1696286;83;27512;-61
2022/09/26 11:52:29;;;;;;;;;;;;;;;34.16;17.53;100342.30;1725137;82;25763;-61
2022/09/26 11:55:18;;;;;;;;;;;;;;;33.91;18.91;100347.78;1731028;81;25779;-62
2022/09/26 11:57:54;;;;;;;;;;;;;;;33.86;18.88;100339.47;1720854;82;25879;-61
2022/09/26 12:00:26;;;;;;;;;;;;;;;33.74;18.55;100343.28;1708251;80;25510;-62
2022/09/26 12:03:32;;;;;;;;;;;;;;;33.42;18.46;100334.55;1737449;81;27598;-60
2022/09/26 12:06:19;;;;;;;;;;;;;;;33.45;19.02;100328.36;1729850;81;25958;-61
2022/09/26 12:08:50;;;;;;;;;;;;;;;33.80;18.68;100329.50;1735200;82;25782;-61
2022/09/26 12:11:23;;;;;;;;;;;;;;;34.06;19.06;100312.36;1731526;83;25997;-60
2022/09/26 12:14:21;;;;;;;;;;;;;;;34.34;19.06;100300.67;1731062;83;25771;-61
2022/09/26 12:16:54;;;;;;;;;;;;;;;34.54;19.09;100297.26;1728283;81;28279;-61
2022/09/26 12:19:39;;;;;;;;;;;;;;;34.51;18.87;100301.50;1730743;82;25891;-61
2022/09/26 12:22:27;;;;;;;;;;;;;;;34.22;19.47;100301.17;1725592;82;25732;-61
2022/09/26 12:25:06;;;;;;;;;;;;;;;33.77;19.53;100298.03;1735298;82;25811;-61
2022/09/26 12:27:58;;;;;;;;;;;;;;;33.36;19.71;100284.17;1734636;82;26192;-61
2022/09/26 12:30:39;;;;;;;;;;;;;;;32.78;20.02;100283.28;1702739;81;27648;-61
2022/09/26 12:33:32;;;;;;;;;;;;;;;32.32;20.16;100280.41;1725997;81;25716;-60
2022/09/26 12:36:17;;;;;;;;;;;;;;;31.91;21.05;100284.43;1733028;82;25807;-59
2022/09/26 12:38:59;;;;;;;;;;;;;;;31.50;20.97;100292.50;1745398;81;25794;-60
2022/09/26 12:41:44;;;;;;;;;;;;;;;31.02;21.93;100292.20;1758675;81;25714;-61
2022/09/26 12:44:18;;;;;;;;;;;;;;;30.70;22.08;100292.89;1727313;82;28180;-61
2022/09/26 12:47:19;;;;;;;;;;;;;;;30.47;22.65;100289.33;1723861;82;25722;-61
2022/09/26 12:50:04;;;;;;;;;;;;;;;30.24;22.85;100293.83;1731383;81;25794;-60
2022/09/26 12:52:40;;;;;;;;;;;;;;;29.85;23.71;100295.75;1733905;82;25810;-62
2022/09/26 12:55:37;;;;;;;;;;;;;;;29.54;24.03;100291.56;1730497;82;25775;-62
2022/09/26 12:58:15;;;;;;;;;;;;;;;29.38;24.56;100292.65;1729281;82;27456;-61
2022/09/26 13:00:49;;;;;;;;;;;;;;;29.27;25.24;100281.52;1713921;82;26085;-60
2022/09/26 13:03:31;;;;;;;;;;;;;;;28.96;25.53;100262.59;1696790;83;25731;-61
2022/09/26 13:06:20;;;;;;;;;;;;;;;28.56;26.14;100258.83;1687941;83;25871;-63
2022/09/26 13:09:12;;;;;;;;;;;;;;;28.47;26.12;100263.74;1701196;83;25791;-60
2022/09/26 13:11:51;;;;;;;;;;;;;;;28.44;27.04;100265.13;1731694;82;27481;-60
2022/09/26 13:14:35;;;;;;;;;;;;;;;28.46;26.85;100267.08;1718012;83;25814;-60
2022/09/26 13:17:09;;;;;;;;;;;;;;;28.43;26.69;100258.77;1731492;83;25803;-60
2022/09/26 13:19:59;;;;;;;;;;;;;;;28.55;26.99;100256.34;1720397;82;25764;-61
2022/09/26 13:22:33;;;;;;;;;;;;;;;28.66;27.10;100251.68;1684320;85;25822;-60
2022/09/26 13:25:17;;;;;;;;;;;;;;;29.18;27.15;100239.69;1686036;85;27641;-60
2022/09/26 13:27:45;;;;;;;;;;;;;;;29.63;26.50;100234.48;1683418;84;25530;-60